Time;durP1;ratioP1;P1;durP2;ratioP2;P2;SDS_P1;SDS_P2;PMS_P1;PMS_P2;Temp;Humidity;BMP_temperature;BMP_pressure;BME280_temperature;BME280_humidity;BME280_pressure;Samples;Min_cycle;Max_cycle;Signal;HPM_P1;HPM_P2
2021/07/20 00:00:06;;;;;;;12.93;9.80;;;20.00;96.50;;;;;;4918769;29;20451;-83
2021/07/20 00:02:54;;;;;;;10.93;9.83;;;20.00;96.50;;;;;;4962406;28;20470;-84
2021/07/20 00:06:00;;;;;;;12.23;9.60;;;20.00;96.30;;;;;;5014446;28;21003;-84
2021/07/20 00:08:27;;;;;;;13.23;10.67;;;19.90;96.40;;;;;;5009596;28;20528;-81
2021/07/20 00:11:02;;;;;;;13.23;9.97;;;20.10;96.00;;;;;;5017560;28;20844;-86
2021/07/20 00:13:29;;;;;;;10.47;9.00;;;20.10;96.00;;;;;;5005466;28;20445;-83
2021/07/20 00:16:01;;;;;;;14.03;10.03;;;19.90;96.10;;;;;;5001722;28;20471;-83
2021/07/20 00:18:33;;;;;;;11.70;9.30;;;19.70;96.50;;;;;;5002190;28;20465;-81
2021/07/20 00:21:04;;;;;;;11.17;9.73;;;19.60;96.80;;;;;;5002041;28;20477;-83
2021/07/20 00:23:32;;;;;;;11.90;10.10;;;19.50;97.00;;;;;;4998832;28;20461;-83
2021/07/20 00:25:59;;;;;;;15.10;9.97;;;19.50;97.00;;;;;;5005679;28;20488;-83
2021/07/20 00:28:28;;;;;;;14.53;10.00;;;19.50;97.20;;;;;;4986698;28;20488;-81
2021/07/20 00:30:56;;;;;;;11.33;9.53;;;19.50;97.10;;;;;;4997476;28;20498;-83
2021/07/20 00:33:24;;;;;;;12.23;9.50;;;19.50;97.20;;;;;;5015852;28;20451;-84
2021/07/20 00:35:52;;;;;;;12.93;9.50;;;19.40;97.20;;;;;;5002722;28;20535;-81
2021/07/20 00:38:20;;;;;;;12.30;9.30;;;19.40;97.30;;;;;;4998569;28;20454;-82
2021/07/20 00:40:48;;;;;;;11.90;10.17;;;19.40;97.40;;;;;;4988108;28;20471;-86
2021/07/20 00:43:16;;;;;;;12.47;9.47;;;19.40;97.40;;;;;;5003671;28;20513;-84
2021/07/20 00:45:45;;;;;;;12.33;10.50;;;19.70;96.80;;;;;;4999525;28;20497;-84
2021/07/20 00:48:13;;;;;;;11.77;10.57;;;19.50;97.00;;;;;;4996979;28;20439;-83
2021/07/20 00:50:44;;;;;;;11.37;9.90;;;19.40;97.10;;;;;;4997445;28;20470;-84
2021/07/20 00:53:13;;;;;;;12.83;10.10;;;19.40;97.40;;;;;;4996836;28;20453;-84
2021/07/20 00:55:42;;;;;;;11.13;9.87;;;19.40;97.50;;;;;;4996054;28;20774;-84
2021/07/20 00:58:11;;;;;;;12.20;9.90;;;19.40;97.60;;;;;;4979909;28;20455;-84
2021/07/20 01:00:41;;;;;;;12.70;10.50;;;19.40;97.50;;;;;;4979881;28;20459;-83
2021/07/20 01:03:09;;;;;;;13.10;9.50;;;19.30;97.50;;;;;;4981520;28;20463;-85
2021/07/20 01:05:37;;;;;;;10.70;9.60;;;19.30;97.40;;;;;;5000151;28;20462;-82
2021/07/20 01:08:06;;;;;;;12.60;9.77;;;19.30;97.60;;;;;;5004017;28;20453;-82
2021/07/20 01:10:37;;;;;;;11.47;10.03;;;19.30;97.60;;;;;;4998487;28;20434;-84
2021/07/20 01:13:06;;;;;;;11.87;9.80;;;19.30;97.60;;;;;;4994355;28;20479;-82
2021/07/20 01:15:36;;;;;;;10.20;9.20;;;19.30;97.70;;;;;;4978628;28;20454;-84
2021/07/20 01:18:06;;;;;;;9.40;8.40;;;19.30;97.90;;;;;;4982124;28;20473;-84
2021/07/20 01:20:34;;;;;;;15.50;10.00;;;19.30;98.00;;;;;;4996618;28;20521;-83
2021/07/20 01:23:11;;;;;;;12.27;9.67;;;19.30;98.00;;;;;;4992913;28;20486;-82
2021/07/20 01:25:39;;;;;;;13.33;10.90;;;19.30;98.20;;;;;;5003508;28;20508;-83
2021/07/20 01:28:10;;;;;;;10.70;9.30;;;19.30;98.40;;;;;;5011982;28;20457;-82
2021/07/20 01:30:42;;;;;;;12.20;9.70;;;19.30;98.50;;;;;;5011990;28;20443;-82
2021/07/20 01:33:11;;;;;;;11.40;9.60;;;19.30;98.40;;;;;;5014276;28;20550;-82
2021/07/20 01:35:41;;;;;;;11.20;9.80;;;19.20;98.70;;;;;;5017126;28;20450;-83
2021/07/20 01:38:09;;;;;;;12.63;9.80;;;19.40;98.60;;;;;;5016559;28;20830;-83
2021/07/20 01:40:39;;;;;;;14.23;11.10;;;19.50;98.80;;;;;;5014615;28;20506;-84
2021/07/20 01:43:08;;;;;;;12.10;9.53;;;19.30;98.50;;;;;;5004640;28;20438;-85
2021/07/20 01:45:38;;;;;;;12.37;9.70;;;19.20;98.80;;;;;;5019725;28;20585;-84
2021/07/20 01:48:07;;;;;;;12.70;10.00;;;19.10;99.10;;;;;;5019175;28;20500;-85
2021/07/20 01:50:35;;;;;;;10.47;9.37;;;19.10;99.10;;;;;;5022291;28;20446;-84
2021/07/20 01:53:05;;;;;;;17.60;10.30;;;19.20;98.70;;;;;;5023552;28;20453;-88
2021/07/20 01:55:33;;;;;;;13.37;10.27;;;19.10;98.80;;;;;;5022886;28;20481;-85
2021/07/20 01:58:01;;;;;;;15.20;10.30;;;19.20;98.80;;;;;;5019647;28;20441;-84
2021/07/20 02:00:29;;;;;;;10.73;9.03;;;19.10;98.80;;;;;;5016170;28;20458;-85
2021/07/20 02:10:11;;;;;;;12.00;9.30;;;18.90;99.30;;;;;;4958653;28;20430;-82
2021/07/20 02:13:51;;;;;;;14.70;10.00;;;19.00;99.10;;;;;;4890755;29;20478;-82
2021/07/20 02:20:44;;;;;;;12.30;9.70;;;18.80;99.60;;;;;;4880352;28;20451;-83
2021/07/20 02:30:50;;;;;;;9.97;8.40;;;18.70;99.70;;;;;;4891136;29;20430;-83
2021/07/20 02:33:21;;;;;;;12.33;10.20;;;18.70;99.70;;;;;;4980763;28;20509;-83
2021/07/20 02:36:25;;;;;;;12.47;9.87;;;18.70;99.80;;;;;;4997493;28;20533;-82
2021/07/20 02:42:59;;;;;;;12.53;9.83;;;18.60;99.60;;;;;;4858742;29;20540;-82
2021/07/20 02:45:44;;;;;;;12.37;9.90;;;18.50;99.90;;;;;;4852341;29;20461;-86
2021/07/20 02:49:16;;;;;;;11.13;9.67;;;18.40;99.90;;;;;;4879332;29;20455;-84
2021/07/20 02:52:02;;;;;;;10.70;9.33;;;18.40;99.90;;;;;;4922044;23;20588;-82
2021/07/20 02:55:03;;;;;;;11.70;10.20;;;18.40;99.90;;;;;;5001972;28;20889;-83
2021/07/20 02:57:48;;;;;;;11.90;10.10;;;18.50;99.90;;;;;;5001842;28;20917;-83
2021/07/20 03:00:44;;;;;;;12.83;9.60;;;18.40;99.90;;;;;;5005648;28;20455;-82
2021/07/20 03:03:25;;;;;;;11.87;10.50;;;18.40;99.90;;;;;;4944462;29;20445;-83
2021/07/20 03:06:38;;;;;;;11.43;9.93;;;18.30;99.90;;;;;;4974759;29;20477;-84
2021/07/20 03:09:52;;;;;;;;;;;;;;;;;;;;;
2021/07/20 03:13:12;;;;;;;13.83;9.80;;;18.40;99.90;;;;;;4979076;28;20507;-81
2021/07/20 03:15:44;;;;;;;14.67;10.63;;;18.30;99.90;;;;;;4970110;29;20539;-83
2021/07/20 03:18:29;;;;;;;12.33;10.10;;;18.20;99.90;;;;;;4979781;28;20436;-85
2021/07/20 03:25:28;;;;;;;14.70;10.70;;;18.10;99.90;;;;;;4919539;28;20493;-84
2021/07/20 03:28:18;;;;;;;12.43;10.17;;;18.10;99.90;;;;;;4967424;28;20458;-86
2021/07/20 03:38:36;;;;;;;13.80;11.00;;;18.10;99.90;;;;;;4979575;28;20433;-87
2021/07/20 03:41:48;;;;;;;13.00;10.00;;;18.10;99.90;;;;;;4921520;29;20470;-86
2021/07/20 03:44:36;;;;;;;13.07;9.33;;;18.00;99.90;;;;;;4920056;29;20448;-86
2021/07/20 03:47:41;;;;;;;;;;;;;;;;;;;;;
2021/07/20 03:51:01;;;;;;;12.40;9.80;;;17.90;99.90;;;;;;4938839;29;20446;-86
2021/07/20 03:53:32;;;;;;;13.50;10.27;;;17.90;99.90;;;;;;4939017;29;20522;-88
2021/07/20 03:56:40;;;;;;;13.50;10.33;;;17.90;99.90;;;;;;4923563;29;20518;-87
2021/07/20 04:00:00;;;;;;;;;;;;;;;;;;;;;
2021/07/20 04:06:14;;;;;;;13.83;10.43;;;17.90;99.90;;;;;;4916769;29;20455;-82
2021/07/20 04:09:02;;;;;;;13.73;9.67;;;17.90;99.90;;;;;;4905517;29;20486;-83
2021/07/20 04:12:00;;;;;;;;;;;;;;;;;;;;;
2021/07/20 04:21:29;;;;;;;10.43;9.33;;;17.90;99.90;;;;;;4836884;29;20535;-82
2021/07/20 04:23:59;;;;;;;12.23;9.33;;;17.90;99.90;;;;;;4840536;29;20517;-83
2021/07/20 04:26:59;;;;;;;13.53;10.53;;;17.90;99.90;;;;;;4844704;29;20451;-83
2021/07/20 04:29:43;;;;;;;;;;;;;;;;;;;;;
2021/07/20 04:33:28;;;;;;;;;;;;;;;;;;;;;
2021/07/20 04:36:22;;;;;;;17.70;10.63;;;17.80;99.90;;;;;;5032929;28;20521;-84
2021/07/20 04:39:27;;;;;;;15.90;10.60;;;17.90;99.90;;;;;;4963321;29;20457;-82
2021/07/20 04:46:34;;;;;;;13.10;9.80;;;17.90;99.90;;;;;;4938135;29;20443;-87
2021/07/20 04:49:38;;;;;;;14.90;10.70;;;17.80;99.90;;;;;;4938231;29;20469;-86
2021/07/20 04:52:28;;;;;;;14.00;10.57;;;17.90;99.90;;;;;;4931131;29;20490;-84
2021/07/20 04:58:34;;;;;;;16.10;11.80;;;17.80;99.90;;;;;;4995415;28;20459;-85
2021/07/20 05:01:22;;;;;;;14.57;10.73;;;17.90;99.90;;;;;;4969254;23;20530;-83
2021/07/20 05:04:24;;;;;;;15.97;12.03;;;17.80;99.90;;;;;;5015780;28;20454;-87
2021/07/20 05:07:25;;;;;;;12.87;9.70;;;17.90;99.90;;;;;;5006355;28;20466;-86
2021/07/20 05:10:26;;;;;;;16.00;11.10;;;17.90;99.90;;;;;;5009911;28;20440;-84
2021/07/20 05:13:19;;;;;;;14.20;10.77;;;17.90;99.90;;;;;;4982317;28;20565;-86
2021/07/20 05:15:56;;;;;;;17.67;11.17;;;17.90;99.90;;;;;;5012498;28;20527;-84
2021/07/20 05:18:36;;;;;;;15.60;11.63;;;17.90;99.90;;;;;;5007152;28;20428;-84
2021/07/20 05:22:18;;;;;;;13.83;11.37;;;18.00;99.90;;;;;;4902334;29;20448;-82
2021/07/20 05:25:22;;;;;;;16.17;11.17;;;18.00;99.90;;;;;;4873684;29;20441;-83
2021/07/20 05:28:04;;;;;;;12.60;10.87;;;18.00;99.90;;;;;;4915104;29;20462;-83
2021/07/20 05:31:20;;;;;;;;;;;;;;;;;;;;;
2021/07/20 05:34:07;;;;;;;17.00;11.10;;;18.10;99.90;;;;;;4915563;29;21132;-83
2021/07/20 05:40:15;;;;;;;;;;;;;;;;;;;;;
2021/07/20 05:51:23;;;;;;;16.67;12.70;;;18.80;99.90;;;;;;4957168;29;20669;-82
2021/07/20 05:54:30;;;;;;;15.83;11.30;;;18.50;99.90;;;;;;4955206;28;20437;-85
2021/07/20 05:57:21;;;;;;;15.07;12.10;;;18.60;99.90;;;;;;4947691;28;20566;-85
2021/07/20 06:00:14;;;;;;;15.63;12.40;;;18.70;99.90;;;;;;4978640;28;20475;-86
2021/07/20 06:10:42;;;;;;;17.77;12.60;;;18.40;99.90;;;;;;4887767;29;20568;-83
2021/07/20 06:16:59;;;;;;;17.60;13.13;;;18.60;99.90;;;;;;4896261;29;20466;-85
2021/07/20 06:20:00;;;;;;;15.53;11.73;;;18.90;99.90;;;;;;4883697;29;20460;-84
2021/07/20 06:23:01;;;;;;;16.40;12.77;;;19.10;99.50;;;;;;4894691;29;20479;-84
2021/07/20 06:26:01;;;;;;;20.20;13.43;;;18.80;99.90;;;;;;4878842;29;20460;-84
2021/07/20 06:28:32;;;;;;;15.17;11.83;;;19.00;99.90;;;;;;4942086;28;20456;-83
2021/07/20 06:32:02;;;;;;;19.83;12.80;;;19.10;99.90;;;;;;4959198;28;20523;-83
2021/07/20 06:35:46;;;;;;;;;;;;;;;;;;;;;
2021/07/20 06:38:39;;;;;;;20.83;14.23;;;19.00;99.90;;;;;;4947666;29;20445;-82
2021/07/20 06:41:51;;;;;;;;;;;;;;;;;;;;;
2021/07/20 06:45:26;;;;;;;17.77;12.80;;;19.00;99.90;;;;;;4846897;29;20461;-84
2021/07/20 07:00:31;;;;;;;18.27;11.83;;;19.60;99.10;;;;;;4999624;28;20497;-83
2021/07/20 07:03:11;;;;;;;17.07;13.10;;;20.00;98.40;;;;;;4976976;28;20479;-83
2021/07/20 07:05:39;;;;;;;20.90;13.73;;;19.90;98.00;;;;;;4983661;28;20455;-83
2021/07/20 07:08:55;;;;;;;15.03;12.60;;;19.50;98.40;;;;;;4921923;29;20459;-82
2021/07/20 07:12:06;;;;;;;18.00;13.73;;;19.70;99.00;;;;;;4969943;23;20484;-82
2021/07/20 07:14:45;;;;;;;21.00;13.60;;;20.20;97.80;;;;;;4942135;29;20461;-84
2021/07/20 07:24:23;;;;;;;21.03;14.17;;;20.60;97.10;;;;;;4899266;29;20456;-84
2021/07/20 07:27:09;;;;;;;20.40;14.77;;;20.80;96.60;;;;;;4919187;29;20450;-84
2021/07/20 07:30:29;;;;;;;19.23;14.10;;;20.60;96.70;;;;;;4884174;29;20434;-84
2021/07/20 07:33:26;;;;;;;20.47;14.37;;;20.60;96.40;;;;;;5019628;23;20495;-84
2021/07/20 07:36:45;;;;;;;19.50;13.57;;;20.90;96.50;;;;;;4997757;28;20915;-83
2021/07/20 07:39:32;;;;;;;19.40;12.90;;;20.90;96.00;;;;;;4987323;28;20443;-83
2021/07/20 07:46:38;;;;;;;18.00;14.10;;;21.10;95.70;;;;;;4988855;28;20430;-84
2021/07/20 07:49:48;;;;;;;18.10;14.10;;;21.30;95.40;;;;;;4936271;29;20485;-82
2021/07/20 07:52:49;;;;;;;18.07;13.37;;;21.40;95.30;;;;;;4979099;28;20478;-79
2021/07/20 08:00:07;;;;;;;23.17;12.80;;;21.50;95.10;;;;;;4923705;29;20469;-82
2021/07/20 08:03:16;;;;;;;17.57;12.43;;;21.40;95.70;;;;;;4863711;29;20450;-88
2021/07/20 08:09:34;;;;;;;;;;;;;;;;;;;;;
2021/07/20 08:12:44;;;;;;;16.53;12.70;;;21.90;94.20;;;;;;4900863;29;21033;-84
2021/07/20 08:16:21;;;;;;;16.07;12.33;;;22.60;93.70;;;;;;4900461;29;20447;-84
2021/07/20 08:19:33;;;;;;;;;;;;;;;;;;;;;
2021/07/20 08:22:40;;;;;;;14.37;12.27;;;23.30;91.60;;;;;;4900049;29;20985;-85
2021/07/20 08:37:08;;;;;;;16.90;13.67;;;24.60;84.90;;;;;;4991419;28;20490;-83
2021/07/20 08:40:39;;;;;;;12.90;11.20;;;24.00;87.10;;;;;;4976978;28;20490;-82
2021/07/20 08:46:51;;;;;;;14.03;9.77;;;25.10;84.40;;;;;;4953688;28;20563;-81
2021/07/20 08:49:52;;;;;;;11.97;10.77;;;25.20;80.90;;;;;;4971298;28;20448;-82
2021/07/20 08:52:50;;;;;;;12.23;10.57;;;25.10;80.80;;;;;;5003522;28;20547;-83
2021/07/20 08:56:09;;;;;;;;;;;;;;;;;;;;;
2021/07/20 09:00:19;;;;;;;12.03;10.43;;;27.10;71.30;;;;;;4922847;29;20483;-84
2021/07/20 09:07:15;;;;;;;13.90;10.80;;;29.90;57.80;;;;;;4953754;29;20496;-83
2021/07/20 09:10:15;;;;;;;12.97;10.90;;;30.80;55.30;;;;;;4985377;28;20482;-84
2021/07/20 09:12:50;;;;;;;12.60;10.60;;;29.30;57.20;;;;;;5014024;23;20495;-83
2021/07/20 09:26:45;;;;;;;12.97;10.17;;;29.20;56.10;;;;;;4892529;29;20434;-84
2021/07/20 09:29:47;;;;;;;10.40;9.40;;;30.40;54.30;;;;;;4935155;29;20505;-85
2021/07/20 09:33:12;;;;;;;;;;;;;;;;;;;;;
2021/07/20 09:52:02;;;;;;;11.33;9.60;;;31.80;47.50;;;;;;4856418;29;20480;-83
2021/07/20 09:55:28;;;;;;;;;;;;;;;;;;;;;
2021/07/20 10:09:41;;;;;;;10.57;9.57;;;30.80;47.20;;;;;;4877840;29;20441;-83
2021/07/20 10:12:52;;;;;;;9.50;8.60;;;30.20;47.20;;;;;;4904259;28;20511;-82
2021/07/20 10:15:41;;;;;;;9.77;8.77;;;30.30;47.60;;;;;;4995741;28;20431;-85
2021/07/20 10:18:45;;;;;;;10.33;9.33;;;30.60;46.90;;;;;;5003637;28;20445;-86
2021/07/20 10:22:08;;;;;;;13.00;10.63;;;30.10;47.40;;;;;;5001910;28;20605;-87
2021/07/20 10:25:32;;;;;;;9.83;8.93;;;29.80;47.30;;;;;;5005455;28;21132;-82
2021/07/20 10:28:59;;;;;;;;;;;;;;;;;;;;;
2021/07/20 10:32:39;;;;;;;9.90;9.03;;;26.80;53.50;;;;;;4997115;28;20454;-84
2021/07/20 10:36:01;;;;;;;;;;;;;;;;;;;;;
2021/07/20 10:39:14;;;;;;;10.93;9.97;;;28.20;52.80;;;;;;4997244;28;20451;-84
2021/07/20 10:42:46;;;;;;;9.30;8.50;;;29.70;49.40;;;;;;4961940;28;20447;-85
2021/07/20 10:46:39;;;;;;;;;;;;;;;;;;;;;
2021/07/20 10:49:53;;;;;;;10.00;9.00;;;30.70;47.60;;;;;;4964132;28;20522;-80
2021/07/20 10:53:38;;;;;;;10.20;9.20;;;32.20;44.80;;;;;;4981300;28;20463;-81
2021/07/20 10:56:50;;;;;;;9.37;8.50;;;31.30;46.10;;;;;;4942719;28;20465;-82
2021/07/20 11:00:03;;;;;;;10.53;9.43;;;30.20;47.00;;;;;;4971167;28;20497;-83
2021/07/20 11:03:15;;;;;;;12.57;10.03;;;29.50;48.40;;;;;;4995030;28;20895;-82
2021/07/20 11:06:11;;;;;;;;;;;;;;;;;;;;;
2021/07/20 11:09:22;;;;;;;9.90;8.90;;;29.30;49.40;;;;;;4994362;28;20435;-82
2021/07/20 11:12:59;;;;;;;9.97;9.17;;;29.30;49.60;;;;;;4965395;28;21123;-84
2021/07/20 11:16:31;;;;;;;11.30;10.27;;;30.00;48.40;;;;;;4980741;28;20947;-83
2021/07/20 11:26:40;;;;;;;10.93;9.80;;;29.20;49.90;;;;;;4982662;28;20471;-81
2021/07/20 11:29:52;;;;;;;12.40;10.10;;;29.30;47.90;;;;;;4996075;28;21051;-82
2021/07/20 11:33:27;;;;;;;11.40;10.20;;;29.20;47.70;;;;;;5036106;23;20557;-81
2021/07/20 11:36:49;;;;;;;;;;;;;;;;;;;;;
2021/07/20 11:40:09;;;;;;;11.83;10.63;;;28.50;49.10;;;;;;5013603;28;20667;-81
2021/07/20 11:43:14;;;;;;;11.23;9.87;;;28.30;50.20;;;;;;5000432;28;20478;-79
2021/07/20 11:46:23;;;;;;;16.17;12.10;;;27.60;52.20;;;;;;4942238;29;20519;-79
2021/07/20 11:49:41;;;;;;;11.53;9.70;;;27.10;52.50;;;;;;4936663;29;20473;-81
2021/07/20 11:53:06;;;;;;;13.27;9.83;;;26.80;53.90;;;;;;4927692;29;20481;-80
2021/07/20 11:57:04;;;;;;;11.60;10.37;;;28.00;51.70;;;;;;4931829;29;20443;-82
2021/07/20 12:00:23;;;;;;;;;;;;;;;;;;;;;
2021/07/20 12:03:24;;;;;;;11.70;10.37;;;28.60;50.50;;;;;;5062317;23;20483;-84
2021/07/20 12:06:23;;;;;;;10.23;9.23;;;28.20;50.70;;;;;;5029538;28;20440;-82
2021/07/20 12:09:31;;;;;;;10.93;9.57;;;27.30;52.80;;;;;;5001980;28;20543;-80
2021/07/20 12:12:50;;;;;;;12.40;9.27;;;27.80;51.40;;;;;;4978630;28;20487;-81
2021/07/20 12:16:52;;;;;;;;;;;;;;;;;;;;;
2021/07/20 12:20:33;;;;;;;11.63;10.53;;;29.10;49.30;;;;;;4878448;29;20596;-82
2021/07/20 12:23:23;;;;;;;10.63;9.43;;;28.40;49.10;;;;;;4827634;29;20969;-83
2021/07/20 12:30:28;;;;;;;9.93;8.73;;;29.00;50.40;;;;;;4735442;30;20480;-84
2021/07/20 12:38:05;;;;;;;13.23;9.37;;;28.00;50.00;;;;;;4734545;29;20511;-84
2021/07/20 12:45:24;;;;;;;10.30;9.30;;;28.10;50.60;;;;;;4758228;30;20482;-84
2021/07/20 12:51:54;;;;;;;9.40;8.10;;;28.50;49.50;;;;;;4852843;23;20490;-85
2021/07/20 12:55:08;;;;;;;9.33;8.50;;;28.70;49.70;;;;;;4965093;28;20450;-84
2021/07/20 12:58:54;;;;;;;10.57;9.47;;;29.20;49.00;;;;;;4980427;28;20563;-83
2021/07/20 13:02:15;;;;;;;12.53;10.80;;;28.90;49.00;;;;;;4913125;29;20505;-85
2021/07/20 13:05:20;;;;;;;10.20;9.10;;;28.50;48.90;;;;;;4944643;29;20559;-84
2021/07/20 13:12:06;;;;;;;12.10;10.03;;;27.60;51.20;;;;;;4881046;29;20472;-85
2021/07/20 13:14:41;;;;;;;9.60;8.70;;;27.40;51.20;;;;;;4879736;29;20488;-85
2021/07/20 13:18:12;;;;;;;11.33;9.20;;;27.00;52.30;;;;;;4897261;29;20542;-83
2021/07/20 13:21:27;;;;;;;;;;;;;;;;;;;;;
2021/07/20 13:24:42;;;;;;;11.27;8.97;;;27.50;51.60;;;;;;4923129;29;20542;-83
2021/07/20 13:27:42;;;;;;;9.73;7.87;;;27.40;50.50;;;;;;4848388;29;20457;-83
2021/07/20 13:31:25;;;;;;;;;;;;;;;;;;;;;
2021/07/20 13:34:53;;;;;;;;;;;;;;;;;;;;;
2021/07/20 13:38:17;;;;;;;8.27;7.33;;;27.70;51.20;;;;;;4827938;29;21046;-81
2021/07/20 13:47:54;;;;;;;10.30;7.83;;;28.60;49.40;;;;;;4772782;29;21084;-82
2021/07/20 13:50:56;;;;;;;8.47;7.40;;;28.70;48.20;;;;;;4832061;29;20961;-83
2021/07/20 13:57:18;;;;;;;8.80;7.83;;;28.60;48.60;;;;;;4971092;28;20490;-83
2021/07/20 14:00:03;;;;;;;8.93;8.03;;;28.00;48.40;;;;;;4994706;28;20518;-81
2021/07/20 14:03:05;;;;;;;8.43;7.73;;;28.20;48.80;;;;;;4981610;28;20817;-82
2021/07/20 14:06:06;;;;;;;8.70;7.90;;;28.20;49.50;;;;;;4988450;28;20953;-82
2021/07/20 14:09:37;;;;;;;8.80;7.67;;;28.20;50.00;;;;;;4976556;28;20456;-83
2021/07/20 14:20:28;;;;;;;11.40;7.70;;;27.50;49.80;;;;;;4926106;29;20438;-82
2021/07/20 14:23:31;;;;;;;8.17;7.33;;;27.30;49.50;;;;;;4917544;29;20506;-82
2021/07/20 14:30:53;;;;;;;10.67;7.20;;;27.30;50.90;;;;;;4972453;28;20485;-82
2021/07/20 14:33:47;;;;;;;12.40;7.60;;;27.80;49.90;;;;;;4984769;28;20442;-84
2021/07/20 14:37:46;;;;;;;8.20;7.33;;;27.70;49.20;;;;;;4883885;29;20483;-85
2021/07/20 14:44:20;;;;;;;10.20;9.20;;;27.20;49.60;;;;;;5004302;28;20461;-85
2021/07/20 14:47:19;;;;;;;9.60;8.50;;;27.20;50.70;;;;;;4993988;28;20457;-83
2021/07/20 14:54:51;;;;;;;;;;;;;;;;;;;;;
2021/07/20 14:58:10;;;;;;;8.20;7.07;;;26.80;50.70;;;;;;4865366;29;20560;-85
2021/07/20 15:01:13;;;;;;;8.80;7.73;;;26.80;50.80;;;;;;4936138;23;20877;-82
2021/07/20 16:12:21;;;;;;;7.77;6.97;;;27.00;50.60;;;;;;5013661;28;20962;-82
2021/07/20 16:18:06;;;;;;;8.07;7.17;;;26.80;50.50;;;;;;5019133;23;20531;-83
2021/07/20 16:20:36;;;;;;;8.80;6.90;;;26.80;51.40;;;;;;5001465;28;20487;-84
2021/07/20 16:23:07;;;;;;;12.70;7.30;;;26.80;50.60;;;;;;4999339;28;20455;-86
2021/07/20 16:25:36;;;;;;;8.27;6.90;;;27.00;50.60;;;;;;4996478;28;20461;-85
2021/07/20 16:28:05;;;;;;;8.03;7.23;;;27.00;50.20;;;;;;4981139;28;20455;-85
2021/07/20 16:30:36;;;;;;;9.07;7.90;;;26.80;50.30;;;;;;4981470;28;20456;-85
2021/07/20 16:33:05;;;;;;;9.27;8.37;;;26.70;50.30;;;;;;4982069;28;20476;-84
2021/07/20 16:35:32;;;;;;;8.47;7.63;;;26.40;50.40;;;;;;4971401;28;20464;-84
2021/07/20 16:38:08;;;;;;;9.13;7.40;;;26.40;51.10;;;;;;4981037;28;20515;-84
2021/07/20 16:40:43;;;;;;;9.40;7.50;;;26.40;51.50;;;;;;4961422;28;20462;-84
2021/07/20 16:43:13;;;;;;;9.20;7.77;;;26.50;51.10;;;;;;4978752;28;20458;-84
2021/07/20 16:45:42;;;;;;;9.07;8.20;;;26.50;51.60;;;;;;4978257;28;20452;-83
2021/07/20 16:48:10;;;;;;;8.77;7.87;;;26.50;51.40;;;;;;4979355;28;20458;-85
2021/07/20 16:50:38;;;;;;;8.67;7.77;;;26.40;51.50;;;;;;4975048;28;20482;-84
2021/07/20 16:53:05;;;;;;;10.60;8.43;;;26.20;51.70;;;;;;5000049;28;20973;-82
2021/07/20 16:55:33;;;;;;;7.80;7.00;;;26.10;51.70;;;;;;4981706;28;20454;-83
2021/07/20 16:58:02;;;;;;;8.93;8.13;;;26.10;52.10;;;;;;4996707;28;20480;-83
2021/07/20 17:00:29;;;;;;;8.37;7.37;;;26.50;51.90;;;;;;4991797;28;20810;-86
2021/07/20 17:03:01;;;;;;;8.60;7.70;;;26.60;51.60;;;;;;4990637;28;20563;-81
2021/07/20 17:05:31;;;;;;;9.53;8.03;;;26.40;51.40;;;;;;4990735;28;20432;-84
2021/07/20 17:08:05;;;;;;;7.80;7.00;;;26.20;51.60;;;;;;4974851;28;20449;-86
2021/07/20 17:10:37;;;;;;;9.17;8.03;;;26.20;51.80;;;;;;5009597;28;20424;-87
2021/07/20 17:13:05;;;;;;;7.87;7.07;;;26.20;51.50;;;;;;4998494;28;20442;-87
2021/07/20 17:15:35;;;;;;;10.93;7.43;;;26.20;52.30;;;;;;4996028;28;20439;-84
2021/07/20 17:18:10;;;;;;;7.30;6.60;;;26.20;51.90;;;;;;4996647;28;20661;-83
2021/07/20 17:20:39;;;;;;;9.53;7.57;;;26.50;51.70;;;;;;4972583;28;20466;-84
2021/07/20 17:23:06;;;;;;;8.80;7.47;;;26.30;51.30;;;;;;4980923;28;20539;-85
2021/07/20 17:25:33;;;;;;;10.60;7.80;;;26.10;51.60;;;;;;4964019;28;20456;-84
2021/07/20 17:28:10;;;;;;;7.60;6.77;;;26.10;52.00;;;;;;4980107;28;20466;-82
2021/07/20 17:30:37;;;;;;;7.93;7.20;;;26.60;51.20;;;;;;4976917;28;20428;-86
2021/07/20 17:33:24;;;;;;;9.03;7.70;;;26.70;51.70;;;;;;4997420;28;20471;-88
2021/07/20 17:35:52;;;;;;;9.40;7.27;;;26.40;51.30;;;;;;4991296;28;20448;-82
2021/07/20 17:38:31;;;;;;;7.80;7.10;;;26.00;52.10;;;;;;4982158;28;20490;-83
2021/07/20 17:41:10;;;;;;;7.70;7.00;;;26.30;51.70;;;;;;4962476;28;20459;-84
2021/07/20 17:43:46;;;;;;;8.27;7.47;;;26.20;51.40;;;;;;4982636;28;20455;-85
2021/07/20 17:46:24;;;;;;;8.50;7.30;;;26.10;53.00;;;;;;4979499;28;20471;-85
2021/07/20 17:48:54;;;;;;;10.50;7.20;;;26.20;52.10;;;;;;4965882;28;20439;-85
2021/07/20 17:51:41;;;;;;;9.77;7.20;;;26.10;52.30;;;;;;4984633;28;20436;-85
2021/07/20 17:54:26;;;;;;;10.50;7.87;;;26.30;51.90;;;;;;4971160;28;20462;-83
2021/07/20 17:56:55;;;;;;;9.03;6.70;;;26.10;51.90;;;;;;4984794;28;20480;-86
2021/07/20 17:59:23;;;;;;;7.40;6.50;;;25.80;52.60;;;;;;4985680;28;20444;-86
2021/07/20 18:01:50;;;;;;;11.40;8.07;;;25.80;52.90;;;;;;4981877;28;20458;-88
2021/07/20 18:04:31;;;;;;;9.80;7.37;;;25.80;53.50;;;;;;4980910;28;20631;-87
2021/07/20 18:06:58;;;;;;;11.93;6.80;;;25.70;52.70;;;;;;4969217;28;21064;-84
2021/07/20 18:09:25;;;;;;;9.10;8.00;;;25.70;52.80;;;;;;4979156;28;20468;-86
2021/07/20 18:11:53;;;;;;;10.27;7.53;;;25.80;52.70;;;;;;4978126;28;20810;-88
2021/07/20 18:14:20;;;;;;;10.77;7.07;;;25.80;53.30;;;;;;4988682;28;20452;-86
2021/07/20 18:16:46;;;;;;;9.00;7.70;;;25.70;52.90;;;;;;4982659;28;20464;-83
2021/07/20 18:19:13;;;;;;;8.60;7.47;;;25.60;52.80;;;;;;4996257;28;20542;-84
2021/07/20 18:21:40;;;;;;;8.53;7.63;;;25.80;52.70;;;;;;4979957;28;20470;-85
2021/07/20 18:24:07;;;;;;;8.20;7.03;;;25.50;52.60;;;;;;4999555;28;20535;-86
2021/07/20 18:26:35;;;;;;;8.27;7.40;;;25.40;52.70;;;;;;4986855;28;21031;-85
2021/07/20 18:29:03;;;;;;;7.30;6.53;;;25.30;53.30;;;;;;4955807;28;20542;-83
2021/07/20 18:31:32;;;;;;;8.20;6.90;;;25.50;52.70;;;;;;4980965;28;20464;-86
2021/07/20 18:33:59;;;;;;;9.70;7.10;;;25.40;52.60;;;;;;4991480;28;20455;-86
2021/07/20 18:36:27;;;;;;;7.43;6.37;;;25.20;53.20;;;;;;4981618;28;20492;-84
2021/07/20 18:38:54;;;;;;;7.43;6.70;;;25.30;53.70;;;;;;4998550;28;20479;-86
2021/07/20 18:41:21;;;;;;;8.03;6.83;;;25.40;53.20;;;;;;4983442;28;20465;-85
2021/07/20 18:43:49;;;;;;;6.93;6.10;;;25.20;53.60;;;;;;4975363;28;21039;-84
2021/07/20 18:46:16;;;;;;;8.73;6.27;;;25.10;54.00;;;;;;4964330;28;20840;-86
2021/07/20 18:48:44;;;;;;;10.00;7.20;;;24.90;54.00;;;;;;4964986;28;20472;-84
2021/07/20 18:51:11;;;;;;;7.00;6.30;;;24.90;54.30;;;;;;4981733;28;20467;-85
2021/07/20 18:53:38;;;;;;;7.43;6.63;;;24.80;54.80;;;;;;4969154;28;20538;-86
2021/07/20 18:56:05;;;;;;;9.20;7.50;;;24.80;54.80;;;;;;4979284;28;20536;-85
2021/07/20 18:58:35;;;;;;;9.20;7.13;;;25.00;54.60;;;;;;4980511;28;20530;-86
2021/07/20 19:01:03;;;;;;;8.70;7.47;;;25.00;55.00;;;;;;4964772;28;20531;-86
2021/07/20 19:03:30;;;;;;;8.77;6.87;;;25.20;54.30;;;;;;4960500;28;20835;-84
2021/07/20 19:05:57;;;;;;;8.00;5.23;;;25.10;54.90;;;;;;4978049;28;20551;-83
2021/07/20 19:08:25;;;;;;;7.20;5.83;;;25.00;55.00;;;;;;4984143;28;20487;-85
2021/07/20 19:10:54;;;;;;;6.90;6.10;;;25.10;54.80;;;;;;4979624;28;20472;-84
2021/07/20 19:13:21;;;;;;;10.10;5.93;;;25.00;54.70;;;;;;4976096;28;20453;-85
2021/07/20 19:15:47;;;;;;;8.03;6.20;;;25.10;54.90;;;;;;4970968;28;20474;-85
2021/07/20 19:18:14;;;;;;;7.97;6.60;;;25.10;54.70;;;;;;4991355;28;20577;-85
2021/07/20 19:20:42;;;;;;;7.00;5.50;;;25.00;54.70;;;;;;4990602;28;20452;-84
2021/07/20 19:23:08;;;;;;;6.53;5.93;;;24.90;54.80;;;;;;4972842;28;20547;-86
2021/07/20 19:25:37;;;;;;;6.63;5.90;;;24.80;55.50;;;;;;4963777;28;20431;-84
2021/07/20 19:28:08;;;;;;;6.93;5.73;;;24.40;56.60;;;;;;4965468;28;20459;-85
2021/07/20 19:30:37;;;;;;;6.47;5.77;;;24.40;57.40;;;;;;4960580;28;20464;-85
2021/07/20 19:33:04;;;;;;;6.80;5.70;;;24.50;57.20;;;;;;4979435;28;20464;-86
2021/07/20 19:35:31;;;;;;;6.70;6.07;;;24.40;57.50;;;;;;4980668;28;20474;-85
2021/07/20 19:37:58;;;;;;;6.43;5.83;;;24.30;57.30;;;;;;4964861;28;20480;-86
2021/07/20 19:40:26;;;;;;;8.00;6.40;;;24.50;56.70;;;;;;4986945;28;20455;-85
2021/07/20 19:42:55;;;;;;;7.53;5.67;;;24.50;56.30;;;;;;4984497;28;20471;-86
2021/07/20 19:45:23;;;;;;;8.00;5.73;;;24.60;56.00;;;;;;4991670;28;20458;-85
2021/07/20 19:47:51;;;;;;;9.70;5.70;;;24.50;56.40;;;;;;4969193;28;20617;-86
2021/07/20 19:50:21;;;;;;;6.00;5.50;;;24.30;56.70;;;;;;4961703;28;20460;-87
2021/07/20 19:52:48;;;;;;;6.70;5.97;;;24.10;58.00;;;;;;4979893;28;20531;-85
2021/07/20 19:55:16;;;;;;;13.10;7.53;;;24.20;58.30;;;;;;4962523;28;20444;-85
2021/07/20 19:57:43;;;;;;;6.60;5.67;;;24.10;58.50;;;;;;4979959;28;20858;-84
2021/07/20 20:00:16;;;;;;;10.47;6.20;;;23.90;58.90;;;;;;4971048;28;20535;-85